Time;durP1;ratioP1;P1;durP2;ratioP2;P2;SDS_P1;SDS_P2;PMS_P1;PMS_P2;Temp;Humidity;BMP_temperature;BMP_pressure;BME280_temperature;BME280_humidity;BME280_pressure;Samples;Min_cycle;Max_cycle;Signal;HPM_P1;HPM_P2
2021/12/10 00:01:54;;;;;;;25.50;15.50;;;;;;;1.35;87.59;94599.88;1743814;82;21529;-76
2021/12/10 00:04:29;;;;;;;21.13;12.57;;;;;;;1.29;87.10;94601.19;1742548;82;21074;-76
2021/12/10 00:07:00;;;;;;;21.40;10.53;;;;;;;1.24;87.26;94604.22;1743947;82;21816;-76
2021/12/10 00:09:38;;;;;;;14.43;8.57;;;;;;;1.24;87.26;94614.61;1744121;82;21072;-75
2021/12/10 00:12:11;;;;;;;16.07;8.33;;;;;;;1.23;87.45;94595.53;1743916;82;21011;-75
2021/12/10 00:14:39;;;;;;;16.62;9.25;;;;;;;1.20;87.08;94591.64;1744121;82;21027;-75
2021/12/10 00:17:10;;;;;;;10.87;6.57;;;;;;;1.15;87.28;94592.50;1744291;82;21062;-76
2021/12/10 00:19:45;;;;;;;13.00;8.10;;;;;;;1.08;86.95;94598.11;1744280;82;21091;-75
2021/12/10 00:22:14;;;;;;;19.33;8.40;;;;;;;0.98;87.54;94597.25;1743976;82;21468;-75
2021/12/10 00:24:44;;;;;;;12.27;6.93;;;;;;;0.97;87.54;94598.54;1744538;82;20971;-76
2021/12/10 00:27:11;;;;;;;12.80;7.17;;;;;;;0.93;87.44;94596.78;1744141;82;21075;-75
2021/12/10 00:29:47;;;;;;;18.03;7.83;;;;;;;0.89;87.39;94597.22;1744390;82;21018;-76
2021/12/10 00:32:28;;;;;;;11.30;6.47;;;;;;;0.83;87.96;94604.98;1743946;82;21056;-75
2021/12/10 00:34:48;;;;;;;8.73;5.67;;;;;;;0.92;88.29;94604.16;1741145;82;21577;-75
2021/12/10 00:37:19;;;;;;;9.53;5.83;;;;;;;0.92;87.93;94603.72;1744336;82;21019;-76
2021/12/10 00:39:54;;;;;;;10.70;5.90;;;;;;;0.82;88.01;94609.31;1744590;82;21046;-75
2021/12/10 00:42:28;;;;;;;14.27;7.90;;;;;;;0.85;88.34;94611.91;1744257;82;21031;-76
2021/12/10 00:44:59;;;;;;;12.67;6.60;;;;;;;0.91;88.58;94603.70;1744155;82;21027;-75
2021/12/10 00:47:28;;;;;;;12.87;7.67;;;;;;;0.89;88.41;94596.36;1744579;82;21520;-75
2021/12/10 00:49:56;;;;;;;9.07;4.97;;;;;;;0.92;88.68;94597.22;1744347;82;20996;-75
2021/12/10 00:52:23;;;;;;;6.80;4.40;;;;;;;1.00;88.87;94603.73;1744407;82;21063;-75
2021/12/10 00:54:51;;;;;;;8.87;4.80;;;;;;;1.07;88.64;94606.34;1744076;82;20988;-75
2021/12/10 00:57:18;;;;;;;8.90;5.17;;;;;;;1.01;88.02;94602.89;1744008;82;21069;-75
2021/12/10 00:59:48;;;;;;;7.80;4.87;;;;;;;0.96;87.97;94605.88;1744293;82;21311;-75
2021/12/10 01:02:20;;;;;;;8.97;4.83;;;;;;;1.05;88.54;94596.37;1744180;82;21071;-76
2021/12/10 01:04:51;;;;;;;9.90;6.83;;;;;;;1.06;88.10;94599.86;1744513;82;21027;-76
2021/12/10 01:07:23;;;;;;;8.93;5.20;;;;;;;1.02;88.09;94592.48;1744197;82;21018;-76
2021/12/10 01:09:53;;;;;;;9.83;5.87;;;;;;;1.05;88.35;94566.50;1744643;82;21059;-76
2021/12/10 01:12:28;;;;;;;9.30;4.97;;;;;;;1.05;88.03;94574.73;1744192;82;21102;-75
2021/12/10 01:15:34;;;;;;;5.47;3.63;;;;;;;0.99;87.88;94563.91;1743726;82;21079;-76
2021/12/10 01:26:38;;;;;;;19.23;9.33;;;;;;;0.95;88.31;94584.67;1743857;82;21063;-75
2021/12/10 01:28:35;;;;;;;23.13;13.07;;;;;;;1.02;88.60;94594.22;1734132;82;21031;-76
2021/12/10 01:31:02;;;;;;;19.53;10.70;;;;;;;1.06;88.70;94571.30;1744230;82;20988;-76
2021/12/10 01:33:29;;;;;;;18.00;9.97;;;;;;;1.07;88.43;94573.01;1743950;82;21051;-76
2021/12/10 01:35:57;;;;;;;12.13;7.93;;;;;;;1.04;88.11;94591.20;1744171;82;21031;-76
2021/12/10 01:38:25;;;;;;;15.47;8.87;;;;;;;1.12;88.50;94601.59;1744087;82;21054;-75
2021/12/10 01:40:57;;;;;;;15.83;9.43;;;;;;;1.15;88.19;94601.16;1743820;82;21024;-75
2021/12/10 01:43:24;;;;;;;13.90;7.70;;;;;;;1.15;88.24;94590.77;1744334;82;21446;-75
2021/12/10 01:46:05;;;;;;;12.07;6.80;;;;;;;1.15;88.03;94593.36;1743745;82;21024;-76
2021/12/10 01:48:33;;;;;;;13.70;7.90;;;;;;;1.21;88.38;94606.78;1743283;82;21008;-75
2021/12/10 01:51:01;;;;;;;11.90;7.63;;;;;;;1.28;88.31;94605.94;1744296;82;21000;-75
2021/12/10 01:53:32;;;;;;;13.53;7.47;;;;;;;1.24;87.86;94603.78;1744210;82;21051;-75
2021/12/10 01:56:03;;;;;;;13.47;6.93;;;;;;;1.32;88.40;94601.19;1744072;82;20980;-75
2021/12/10 01:58:32;;;;;;;9.70;5.90;;;;;;;1.31;87.95;94609.86;1744161;82;21011;-76
2021/12/10 02:01:07;;;;;;;11.83;7.27;;;;;;;1.38;88.43;94592.52;1744210;82;21014;-76
2021/12/10 02:03:35;;;;;;;12.73;8.10;;;;;;;1.38;87.94;94603.77;1744070;82;21003;-76
2021/12/10 02:06:04;;;;;;;14.20;9.73;;;;;;;1.40;88.30;94606.39;1743882;82;21008;-75
2021/12/10 02:08:32;;;;;;;14.80;8.97;;;;;;;1.42;88.18;94598.16;1744245;82;20983;-76
2021/12/10 02:10:59;;;;;;;18.27;11.27;;;;;;;1.40;87.74;94609.84;1743848;82;21034;-75
2021/12/10 02:13:28;;;;;;;16.40;9.30;;;;;;;1.38;87.90;94621.97;1743976;82;21058;-75
2021/12/10 02:15:55;;;;;;;12.83;8.30;;;;;;;1.41;87.91;94606.41;1744533;82;21027;-75
2021/12/10 02:18:22;;;;;;;13.17;8.00;;;;;;;1.34;87.70;94593.41;1744222;82;21074;-75
2021/12/10 02:21:10;;;;;;;9.37;5.80;;;;;;;1.38;88.00;94591.22;1744280;82;21055;-75
2021/12/10 02:23:42;;;;;;;7.50;5.40;;;;;;;1.35;87.67;94588.63;1744248;82;21036;-75
2021/12/10 02:26:13;;;;;;;10.70;6.00;;;;;;;1.25;87.47;94589.91;1744358;82;21050;-75
2021/12/10 02:28:41;;;;;;;19.03;10.63;;;;;;;1.14;87.67;94598.14;1744467;82;21088;-75
2021/12/10 02:31:11;;;;;;;21.23;13.00;;;;;;;1.12;88.09;94605.50;1744170;82;21011;-75
2021/12/10 02:33:39;;;;;;;15.37;8.97;;;;;;;1.07;88.12;94610.67;1744477;82;21505;-76
2021/12/10 02:36:11;;;;;;;11.40;6.80;;;;;;;1.08;88.27;94602.90;1744402;82;21102;-76
2021/12/10 02:38:34;;;;;;;10.40;5.73;;;;;;;1.07;88.16;94604.19;1743962;82;21031;-76
2021/12/10 02:41:01;;;;;;;5.87;3.90;;;;;;;1.05;88.14;94611.96;1744189;82;21094;-75
2021/12/10 02:43:28;;;;;;;8.40;5.23;;;;;;;1.04;88.30;94609.38;1744291;82;21517;-76
2021/12/10 02:45:57;;;;;;;6.83;4.90;;;;;;;1.08;88.48;94605.91;1744165;82;20999;-76
2021/12/10 02:48:25;;;;;;;20.03;9.47;;;;;;;1.08;88.31;94614.59;1744365;82;20991;-76
2021/12/10 02:50:55;;;;;;;17.70;9.57;;;;;;;1.10;88.55;94628.86;1744368;82;21031;-76
2021/12/10 02:53:27;;;;;;;6.37;3.67;;;;;;;1.18;88.90;94624.98;1744551;82;21008;-75
2021/12/10 02:55:51;;;;;;;11.13;5.43;;;;;;;1.19;88.53;94622.83;1743653;82;21062;-75
2021/12/10 02:58:17;;;;;;;11.67;6.80;;;;;;;1.15;88.48;94617.19;1744167;82;21066;-75
2021/12/10 03:00:52;;;;;;;16.57;7.33;;;;;;;1.20;88.97;94612.42;1744151;82;21097;-75
2021/12/10 03:03:19;;;;;;;9.07;5.77;;;;;;;1.22;88.89;94593.81;1744563;82;21528;-75
2021/12/10 03:05:46;;;;;;;18.17;8.87;;;;;;;1.24;88.69;94602.92;1744520;82;21007;-75
2021/12/10 03:08:14;;;;;;;41.33;21.00;;;;;;;1.19;88.89;94606.80;1744210;82;21074;-76
2021/12/10 03:10:42;;;;;;;54.47;26.10;;;;;;;1.19;89.14;94615.04;1744607;82;21098;-76
2021/12/10 03:13:10;;;;;;;47.03;22.43;;;;;;;1.27;89.37;94597.28;1743964;82;21023;-76
2021/12/10 03:15:37;;;;;;;37.97;18.67;;;;;;;1.35;89.18;94604.22;1744480;82;21532;-76
2021/12/10 03:18:09;;;;;;;34.27;17.23;;;;;;;1.34;88.87;94603.80;1744350;82;20995;-76
2021/12/10 03:20:38;;;;;;;20.17;10.87;;;;;;;1.30;88.93;94608.11;1744542;82;21095;-75
2021/12/10 03:23:06;;;;;;;19.83;10.07;;;;;;;1.33;89.02;94601.61;1744261;82;20995;-76
2021/12/10 03:25:34;;;;;;;18.87;9.40;;;;;;;1.39;89.31;94593.83;1744160;82;21090;-76
2021/12/10 03:28:01;;;;;;;20.77;11.83;;;;;;;1.45;89.05;94578.66;1744212;82;21041;-75
2021/12/10 03:30:32;;;;;;;17.90;10.27;;;;;;;1.47;89.10;94580.39;1743924;82;21022;-74
2021/12/10 03:32:59;;;;;;;15.10;9.63;;;;;;;1.55;89.37;94579.53;1744514;82;21058;-75
2021/12/10 03:35:33;;;;;;;16.13;9.77;;;;;;;1.61;89.19;94581.67;1744397;82;21603;-75
2021/12/10 03:38:04;;;;;;;19.07;10.43;;;;;;;1.62;88.84;94584.73;1744135;82;21015;-75
2021/12/10 03:40:32;;;;;;;19.63;9.63;;;;;;;1.57;88.62;94583.87;1744500;82;21086;-75
2021/12/10 03:43:01;;;;;;;23.60;12.00;;;;;;;1.57;88.46;94578.66;1744209;82;21046;-75
2021/12/10 03:45:33;;;;;;;29.93;15.27;;;;;;;1.51;88.47;94577.34;1744678;82;21100;-75
2021/12/10 03:48:03;;;;;;;33.27;16.03;;;;;;;1.50;88.56;94587.33;1744362;82;21552;-75
2021/12/10 03:50:32;;;;;;;21.73;12.20;;;;;;;1.47;88.38;94592.09;1721018;82;21034;-75
2021/12/10 03:53:00;;;;;;;29.30;14.97;;;;;;;1.46;88.44;94592.97;1744364;82;21039;-75
2021/12/10 03:55:28;;;;;;;24.77;13.63;;;;;;;1.55;88.92;94591.23;1744096;82;20992;-75
2021/12/10 03:57:57;;;;;;;27.80;13.93;;;;;;;1.62;88.98;94590.37;1743989;82;21055;-75
2021/12/10 04:00:29;;;;;;;29.43;13.27;;;;;;;1.65;88.89;94583.42;1744490;82;21091;-75
2021/12/10 04:02:56;;;;;;;21.87;10.33;;;;;;;1.66;88.49;94592.97;1744621;82;21019;-75
2021/12/10 04:05:23;;;;;;;15.13;8.63;;;;;;;1.66;88.65;94603.78;1744257;82;21020;-75
2021/12/10 04:07:50;;;;;;;18.30;9.30;;;;;;;1.65;88.16;94608.56;1744442;82;20992;-75
2021/12/10 04:10:19;;;;;;;17.50;9.90;;;;;;;1.56;88.18;94606.81;1744465;82;21019;-75
2021/12/10 04:12:45;;;;;;;14.40;8.37;;;;;;;1.63;88.78;94605.95;1744046;82;20996;-75
2021/12/10 04:15:13;;;;;;;17.50;9.47;;;;;;;1.63;88.38;94606.39;1744404;82;21067;-75
2021/12/10 04:17:40;;;;;;;18.67;9.30;;;;;;;1.64;88.37;94601.20;1744461;82;21019;-75
2021/12/10 04:20:11;;;;;;;13.90;7.57;;;;;;;1.64;88.23;94595.14;1743864;82;21019;-75
2021/12/10 04:22:38;;;;;;;11.50;6.43;;;;;;;1.58;87.71;94595.13;1744455;82;21032;-75
2021/12/10 04:25:08;;;;;;;9.80;5.50;;;;;;;1.53;87.96;94586.45;1744003;82;21020;-75
2021/12/10 04:27:36;;;;;;;8.27;5.13;;;;;;;1.53;87.90;94583.42;1744223;82;21011;-75
2021/12/10 04:30:06;;;;;;;8.13;5.10;;;;;;;1.41;87.52;94589.91;1744200;82;21051;-75
2021/12/10 04:32:34;;;;;;;5.67;3.73;;;;;;;1.40;87.99;94584.30;1744310;82;21557;-75
2021/12/10 04:35:01;;;;;;;11.43;6.37;;;;;;;1.45;88.16;94597.72;1744201;82;21034;-75
2021/12/10 04:37:28;;;;;;;9.03;5.13;;;;;;;1.41;88.08;94599.02;1744083;82;21034;-74
2021/12/10 04:39:54;;;;;;;12.83;8.03;;;;;;;1.39;88.18;94587.33;1744237;82;21469;-75
2021/12/10 04:42:24;;;;;;;13.07;7.53;;;;;;;1.42;88.49;94586.47;1743890;82;21026;-75
2021/12/10 04:44:59;;;;;;;25.40;13.60;;;;;;;1.41;88.45;94584.72;1744339;82;21007;-75
2021/12/10 04:47:27;;;;;;;13.40;7.03;;;;;;;1.42;88.45;94589.06;1744389;82;21057;-75
2021/12/10 04:49:56;;;;;;;11.60;6.77;;;;;;;1.42;88.22;94596.42;1744069;82;21050;-75
2021/12/10 04:52:24;;;;;;;22.37;11.40;;;;;;;1.42;88.44;94595.56;1744091;82;21574;-75
2021/12/10 04:54:50;;;;;;;15.47;9.07;;;;;;;1.41;88.21;94601.20;1743881;82;21019;-75
2021/12/10 04:57:19;;;;;;;22.67;12.73;;;;;;;1.42;88.32;94603.36;1744145;82;21059;-75
2021/12/10 04:59:47;;;;;;;17.00;9.97;;;;;;;1.39;88.18;94602.07;1744345;82;21023;-75
2021/12/10 05:02:17;;;;;;;20.83;11.47;;;;;;;1.41;88.54;94605.51;1743933;82;21016;-75
2021/12/10 05:04:45;;;;;;;24.53;13.77;;;;;;;1.41;88.23;94604.21;1744095;82;21026;-75
2021/12/10 05:07:16;;;;;;;9.73;6.50;;;;;;;1.37;88.00;94603.36;1744387;82;21039;-75
2021/12/10 05:09:43;;;;;;;28.67;16.50;;;;;;;1.33;87.69;94604.64;1744363;82;21114;-75
2021/12/10 05:12:10;;;;;;;27.63;15.93;;;;;;;1.30;87.97;94602.91;1744298;82;21099;-74
2021/12/10 05:14:37;;;;;;;41.40;24.90;;;;;;;1.34;88.31;94597.30;1742320;82;21027;-76
2021/12/10 05:17:08;;;;;;;30.27;18.10;;;;;;;1.25;87.74;94600.30;1741963;82;21107;-75
2021/12/10 05:19:38;;;;;;;23.17;14.13;;;;;;;1.26;88.19;94606.36;1742336;82;21019;-75
2021/12/10 05:22:09;;;;;;;18.50;10.37;;;;;;;1.27;88.07;94604.22;1742127;82;21046;-75
2021/12/10 05:24:37;;;;;;;28.97;16.53;;;;;;;1.15;87.54;94590.77;1742345;82;21098;-75
2021/12/10 05:27:05;;;;;;;27.57;15.40;;;;;;;1.19;88.10;94589.05;1742323;82;21626;-76
2021/12/10 05:29:32;;;;;;;11.67;6.13;;;;;;;1.24;88.57;94586.89;1741801;82;21087;-75
2021/12/10 05:31:59;;;;;;;13.30;8.77;;;;;;;1.15;87.73;94600.30;1742302;82;21557;-76
2021/12/10 05:34:27;;;;;;;17.93;10.70;;;;;;;1.07;87.61;94598.98;1742150;82;21087;-75
2021/12/10 05:36:56;;;;;;;11.77;6.90;;;;;;;1.09;88.02;94602.46;1741890;82;21023;-75
2021/12/10 05:39:23;;;;;;;12.53;8.67;;;;;;;1.04;87.78;94608.08;1742287;82;20996;-75
2021/12/10 05:41:53;;;;;;;13.83;7.70;;;;;;;1.05;87.97;94620.19;1741948;82;21106;-75
2021/12/10 05:44:21;;;;;;;16.77;9.73;;;;;;;1.04;87.96;94625.83;1741612;82;21023;-76
2021/12/10 05:46:48;;;;;;;19.10;10.40;;;;;;;1.08;88.53;94621.49;1741935;82;21632;-76
2021/12/10 05:49:15;;;;;;;34.53;20.53;;;;;;;1.19;88.98;94613.73;1742367;82;21011;-75
2021/12/10 05:51:42;;;;;;;43.33;25.17;;;;;;;1.22;88.73;94620.23;1741132;82;21644;-75
2021/12/10 05:54:09;;;;;;;16.40;8.47;;;;;;;1.24;88.51;94614.17;1742043;82;21048;-74
2021/12/10 05:56:36;;;;;;;11.27;5.53;;;;;;;1.34;88.90;94615.50;1741644;82;21130;-76
2021/12/10 05:59:04;;;;;;;17.83;8.67;;;;;;;1.36;88.41;94615.03;1742028;82;21027;-74
2021/12/10 06:01:32;;;;;;;10.00;5.90;;;;;;;1.32;87.99;94618.08;1742086;81;21031;-78
2021/12/10 06:03:59;;;;;;;9.53;6.47;;;;;;;1.26;87.70;94616.75;1741888;82;21031;-80
2021/12/10 06:06:32;;;;;;;9.33;5.83;;;;;;;1.24;87.75;94630.20;1742007;81;21631;-74
2021/12/10 06:09:04;;;;;;;26.70;13.98;;;;;;;1.32;88.43;94621.12;1742291;82;21086;-74
2021/12/10 06:11:30;;;;;;;29.23;16.47;;;;;;;1.44;88.47;94621.13;1742043;82;20996;-77
2021/12/10 06:13:57;;;;;;;32.23;17.83;;;;;;;1.42;88.07;94612.02;1742716;82;21004;-75
2021/12/10 06:16:25;;;;;;;55.73;30.27;;;;;;;1.39;87.89;94608.56;1743884;82;21533;-76
2021/12/10 06:18:52;;;;;;;9.13;5.00;;;;;;;1.49;88.52;94596.86;1743835;82;21015;-73
2021/12/10 06:21:20;;;;;;;47.00;22.30;;;;;;;1.52;88.13;94611.59;1743887;82;21023;-72
2021/12/10 06:23:47;;;;;;;35.17;22.43;;;;;;;1.44;87.95;94615.94;1744032;82;21042;-72
2021/12/10 06:26:14;;;;;;;126.70;54.07;;;;;;;1.44;87.88;94623.30;1743710;82;21512;-74
2021/12/10 06:28:44;;;;;;;14.87;6.83;;;;;;;1.38;87.62;94638.86;1743824;82;20995;-73
2021/12/10 06:31:09;;;;;;;5.27;3.13;;;;;;;1.39;87.86;94638.02;1743522;82;21505;-75
2021/12/10 06:33:36;;;;;;;10.17;4.57;;;;;;;1.42;87.80;94627.62;1743847;82;21035;-80
2021/12/10 06:36:06;;;;;;;10.33;6.07;;;;;;;1.38;87.58;94628.91;1743800;82;21015;-79
2021/12/10 06:38:34;;;;;;;26.17;14.93;;;;;;;1.36;87.80;94626.33;1743956;82;21480;-75
2021/12/10 06:41:02;;;;;;;40.37;21.67;;;;;;;1.42;88.18;94614.63;1744222;82;21038;-75
2021/12/10 06:43:29;;;;;;;31.30;17.30;;;;;;;1.46;88.28;94617.67;1743934;82;21053;-74
2021/12/10 06:45:56;;;;;;;19.80;10.43;;;;;;;1.44;87.78;94621.13;1744054;82;21549;-77
2021/12/10 06:48:25;;;;;;;20.70;11.43;;;;;;;1.39;87.82;94625.02;1743905;82;21027;-72
2021/12/10 06:50:57;;;;;;;20.80;11.37;;;;;;;1.46;88.29;94620.27;1744179;82;20991;-75
2021/12/10 06:53:27;;;;;;;14.97;7.90;;;;;;;1.50;88.14;94619.82;1744123;82;21059;-72
2021/12/10 06:55:54;;;;;;;10.40;6.23;;;;;;;1.48;87.82;94618.51;1744108;82;21058;-73
2021/12/10 06:58:23;;;;;;;7.87;4.70;;;;;;;1.47;87.87;94621.98;1743649;82;21004;-74
2021/12/10 07:00:54;;;;;;;5.03;3.90;;;;;;;1.47;87.69;94625.89;1721346;82;20991;-73
2021/12/10 07:03:26;;;;;;;18.87;10.83;;;;;;;1.42;87.54;94613.32;1744082;82;21071;-70
2021/12/10 07:05:56;;;;;;;38.07;22.17;;;;;;;1.38;87.69;94618.52;1744316;82;21414;-75
2021/12/10 07:08:26;;;;;;;65.90;34.93;;;;;;;1.36;88.01;94619.83;1742985;82;21015;-80
2021/12/10 07:10:54;;;;;;;66.77;30.20;;;;;;;1.37;88.01;94624.59;1743973;82;21007;-80
2021/12/10 07:13:22;;;;;;;16.47;9.40;;;;;;;1.33;88.07;94618.50;1743857;82;21074;-81
2021/12/10 07:15:50;;;;;;;13.77;8.27;;;;;;;1.39;88.23;94625.46;1743904;82;21557;-81
2021/12/10 07:18:19;;;;;;;6.30;3.37;;;;;;;1.41;88.15;94630.20;1744002;82;21062;-84
2021/12/10 07:20:48;;;;;;;24.80;14.77;;;;;;;1.48;88.33;94628.91;1744097;82;21501;-75
2021/12/10 07:23:15;;;;;;;29.03;17.60;;;;;;;1.59;88.80;94621.14;1743845;82;21058;-72
2021/12/10 07:25:42;;;;;;;16.57;10.80;;;;;;;1.67;88.76;94621.14;1743771;82;21078;-72
2021/12/10 07:28:09;;;;;;;24.73;15.73;;;;;;;1.77;88.78;94623.30;1743921;82;21019;-71
2021/12/10 07:30:37;;;;;;;45.93;26.37;;;;;;;1.81;88.61;94614.61;1743857;82;21489;-71
2021/12/10 07:33:08;;;;;;;59.43;32.77;;;;;;;1.83;88.28;94606.38;1744111;82;21069;-72
2021/12/10 07:35:37;;;;;;;19.10;11.07;;;;;;;1.91;88.38;94605.93;1743971;82;21027;-72
2021/12/10 07:38:05;;;;;;;12.30;8.50;;;;;;;1.85;87.55;94604.65;1744088;82;21019;-71
2021/12/10 07:40:35;;;;;;;6.17;4.20;;;;;;;1.83;87.91;94602.48;1743984;82;21027;-71
2021/12/10 07:43:04;;;;;;;9.00;4.60;;;;;;;1.95;88.38;94592.92;1743769;82;21020;-72
2021/12/10 07:45:31;;;;;;;5.43;4.07;;;;;;;1.91;87.52;94597.69;1744149;82;21138;-71
2021/12/10 07:48:00;;;;;;;7.93;4.07;;;;;;;1.87;87.73;94606.38;1743988;82;20968;-71
2021/12/10 07:50:32;;;;;;;10.90;9.53;;;;;;;1.93;87.77;94619.80;1743898;82;21027;-71
2021/12/10 07:53:00;;;;;;;14.90;12.70;;;;;;;1.92;87.68;94622.84;1742939;82;21034;-69
2021/12/10 07:55:31;;;;;;;37.77;21.10;;;;;;;1.91;87.61;94633.24;1711576;82;21197;-73
2021/12/10 07:58:01;;;;;;;106.20;54.47;;;;;;;1.89;87.98;94635.86;1689191;82;20987;-70
2021/12/10 08:00:32;;;;;;;88.10;49.37;;;;;;;1.98;88.36;94635.41;1703694;84;21082;-73
2021/12/10 08:02:59;;;;;;;111.63;58.67;;;;;;;2.02;88.33;94635.86;1703904;84;21158;-81
2021/12/10 08:05:26;;;;;;;119.83;67.23;;;;;;;2.12;88.55;94637.13;1703825;83;20987;-70
2021/12/10 08:07:55;;;;;;;108.40;59.37;;;;;;;2.15;88.20;94628.45;1703639;83;21089;-71
2021/12/10 08:10:23;;;;;;;188.93;101.33;;;;;;;2.22;88.01;94617.58;1703764;84;21061;-70
2021/12/10 08:12:50;;;;;;;169.67;91.57;;;;;;;2.28;88.04;94626.25;1704073;83;20966;-70
2021/12/10 08:15:17;;;;;;;150.03;81.00;;;;;;;2.34;87.60;94621.45;1721657;83;21021;-72
2021/12/10 08:17:46;;;;;;;107.07;64.23;;;;;;;2.34;87.80;94614.95;1732649;83;20982;-73
2021/12/10 08:20:19;;;;;;;109.90;62.47;;;;;;;2.36;87.84;94617.98;1732695;83;21618;-70
2021/12/10 08:22:48;;;;;;;101.20;58.67;;;;;;;2.39;87.55;94632.72;1741744;82;21035;-69
2021/12/10 08:25:17;;;;;;;82.70;50.37;;;;;;;2.46;87.93;94628.37;1747663;82;20944;-67
2021/12/10 08:27:44;;;;;;;108.00;58.67;;;;;;;2.48;87.74;94628.80;1749700;82;21023;-70
2021/12/10 08:30:15;;;;;;;67.97;40.00;;;;;;;2.52;87.60;94623.13;1749430;82;20987;-73
2021/12/10 08:32:43;;;;;;;75.90;44.07;;;;;;;2.37;86.77;94614.52;1748984;82;21023;-71
2021/12/10 08:35:15;;;;;;;87.37;51.23;;;;;;;2.29;86.96;94617.59;1748499;82;21121;-71
2021/12/10 08:37:42;;;;;;;120.27;60.97;;;;;;;2.29;87.16;94609.78;1749067;82;21579;-70
2021/12/10 08:40:12;;;;;;;101.40;58.93;;;;;;;2.22;87.15;94604.56;1749104;81;21061;-71
2021/12/10 08:42:39;;;;;;;103.70;60.03;;;;;;;2.21;87.55;94602.40;1749526;82;21049;-71
2021/12/10 08:45:07;;;;;;;83.07;49.47;;;;;;;2.27;87.86;94607.61;1749201;82;20999;-69
2021/12/10 08:47:34;;;;;;;93.37;56.00;;;;;;;2.27;87.55;94605.41;1750452;82;21010;-69
2021/12/10 08:50:04;;;;;;;74.27;44.57;;;;;;;2.21;87.71;94610.65;1749758;82;20999;-69
2021/12/10 08:52:31;;;;;;;69.50;42.53;;;;;;;2.18;87.87;94617.17;1749788;82;21489;-71
2021/12/10 08:54:58;;;;;;;58.00;36.13;;;;;;;2.19;88.18;94611.09;1749501;82;20992;-74
2021/12/10 08:57:26;;;;;;;41.30;24.37;;;;;;;2.16;88.27;94614.12;1749794;82;21031;-70
2021/12/10 08:59:54;;;;;;;50.40;31.70;;;;;;;2.18;88.25;94611.97;1749301;82;21042;-75
2021/12/10 09:02:21;;;;;;;55.43;34.07;;;;;;;2.14;88.27;94621.50;1749738;82;20999;-68
2021/12/10 09:04:48;;;;;;;54.03;31.77;;;;;;;2.19;88.39;94616.29;1749468;82;21046;-70
2021/12/10 09:07:17;;;;;;;47.60;30.53;;;;;;;2.23;88.48;94612.82;1749529;82;21019;-73
2021/12/10 09:09:46;;;;;;;48.33;30.00;;;;;;;2.29;88.67;94608.89;1746362;82;21734;-72
2021/12/10 09:12:23;;;;;;;46.53;28.47;;;;;;;2.31;88.52;94601.95;1735658;81;20938;-69
2021/12/10 09:14:53;;;;;;;46.40;29.67;;;;;;;2.35;88.59;94611.49;1710078;82;21509;-67
2021/12/10 09:17:25;;;;;;;40.80;26.67;;;;;;;2.44;88.74;94606.23;1747817;81;21749;-67
2021/12/10 09:19:55;;;;;;;42.57;26.40;;;;;;;2.50;88.52;94594.95;1729176;83;21042;-68
2021/12/10 09:22:23;;;;;;;43.17;28.67;;;;;;;2.54;88.58;94593.61;1747604;82;21018;-68
2021/12/10 09:24:54;;;;;;;38.57;25.93;;;;;;;2.65;88.53;94595.34;1757887;81;21146;-75
2021/12/10 09:27:19;;;;;;;38.10;25.80;;;;;;;2.71;88.52;94591.39;1780225;80;21527;-75
2021/12/10 09:29:48;;;;;;;40.37;28.03;;;;;;;2.80;88.66;94593.96;1759033;81;21085;-73
2021/12/10 09:32:20;;;;;;;44.63;28.00;;;;;;;2.88;88.32;94588.27;1780466;80;21081;-72
2021/12/10 09:34:48;;;;;;;38.30;26.17;;;;;;;2.92;88.35;94586.50;1759818;81;21094;-72
2021/12/10 09:37:18;;;;;;;39.37;25.43;;;;;;;2.98;88.13;94584.73;1781522;80;21038;-70
2021/12/10 09:39:48;;;;;;;35.30;22.37;;;;;;;3.01;87.73;94584.71;1759256;81;21030;-69
2021/12/10 09:42:17;;;;;;;32.60;20.17;;;;;;;3.00;87.44;94579.53;1781912;80;20963;-69
2021/12/10 09:44:44;;;;;;;34.10;21.80;;;;;;;3.04;87.29;94574.27;1759841;81;21019;-78
2021/12/10 09:47:14;;;;;;;30.40;20.50;;;;;;;3.16;87.82;94578.54;1781744;80;20951;-74
2021/12/10 09:49:39;;;;;;;29.80;21.03;;;;;;;3.26;87.86;94571.53;1759423;81;21086;-75
2021/12/10 09:52:08;;;;;;;33.60;21.80;;;;;;;3.44;87.97;94571.83;1781988;80;21010;-70
2021/12/10 09:54:37;;;;;;;34.97;23.50;;;;;;;3.44;86.90;94560.09;1759918;81;21003;-71
2021/12/10 09:57:14;;;;;;;42.27;24.20;;;;;;;3.37;86.27;94555.80;1781886;80;21006;-74
2021/12/10 09:59:45;;;;;;;44.20;26.60;;;;;;;3.27;86.05;94552.39;1752305;81;21022;-68
2021/12/10 10:02:12;;;;;;;61.53;36.43;;;;;;;3.23;86.47;94546.34;1782024;80;21315;-69
2021/12/10 10:04:46;;;;;;;59.63;34.23;;;;;;;3.28;86.82;94544.16;1738669;81;21121;-67
2021/12/10 10:07:14;;;;;;;55.23;35.23;;;;;;;3.29;86.86;94528.93;1782112;80;21006;-66
2021/12/10 10:09:49;;;;;;;78.87;42.10;;;;;;;3.38;87.00;94524.52;1759777;81;21524;-66
2021/12/10 10:12:26;;;;;;;105.13;52.70;;;;;;;3.49;87.12;94509.21;1782341;80;20978;-67
2021/12/10 10:14:54;;;;;;;108.77;61.33;;;;;;;3.46;86.63;94500.53;1758714;81;21592;-66
2021/12/10 10:17:22;;;;;;;203.77;100.60;;;;;;;3.39;86.54;94517.55;1768756;80;21055;-66
2021/12/10 10:19:51;;;;;;;243.50;122.53;;;;;;;3.31;86.83;94524.58;1746486;82;21079;-66
2021/12/10 10:22:23;;;;;;;202.37;99.43;;;;;;;3.24;87.43;94527.66;1773806;81;21539;-66
2021/12/10 10:24:51;;;;;;;210.27;102.97;;;;;;;3.24;87.55;94534.17;1746674;82;21010;-66
2021/12/10 10:27:23;;;;;;;154.33;88.73;;;;;;;3.17;87.92;94527.27;1773681;81;21026;-65
2021/12/10 10:29:58;;;;;;;130.47;77.37;;;;;;;3.17;88.20;94529.43;1746566;82;21031;-66
2021/12/10 10:32:29;;;;;;;125.13;74.50;;;;;;;3.18;88.67;94519.45;1773419;81;21034;-66
2021/12/10 10:35:01;;;;;;;105.00;68.43;;;;;;;3.21;88.59;94509.44;1746559;82;21019;-66
2021/12/10 10:37:30;;;;;;;81.83;53.17;;;;;;;3.25;88.78;94505.91;1765996;81;21066;-66
2021/12/10 10:39:57;;;;;;;60.50;41.03;;;;;;;3.38;88.95;94503.66;1742662;82;20983;-66
2021/12/10 10:42:27;;;;;;;54.73;34.57;;;;;;;3.50;88.86;94504.41;1750121;82;21130;-66
2021/12/10 10:45:00;;;;;;;37.00;24.63;;;;;;;3.57;88.61;94511.30;1739498;82;21070;-66
2021/12/10 10:47:27;;;;;;;23.77;16.53;;;;;;;3.69;88.66;94515.97;1739969;82;21034;-66
2021/12/10 10:50:12;;;;;;;35.60;20.33;;;;;;;3.75;88.22;94512.42;1739564;82;20984;-66
2021/12/10 10:52:45;;;;;;;132.07;65.23;;;;;;;3.79;88.05;94518.50;1739431;82;21064;-66
2021/12/10 10:55:19;;;;;;;57.63;35.20;;;;;;;3.79;87.66;94516.75;1740115;82;21546;-66
2021/12/10 10:58:07;;;;;;;34.17;20.60;;;;;;;3.81;87.49;94508.92;1739852;82;21043;-66
2021/12/10 11:01:03;;;;;;;32.37;18.47;;;;;;;3.88;87.64;94507.95;1739689;82;21016;-66
2021/12/10 11:03:40;;;;;;;34.53;22.63;;;;;;;3.97;87.89;94498.72;1739914;82;21094;-66
2021/12/10 11:06:12;;;;;;;18.73;10.93;;;;;;;4.03;87.66;94496.48;1739447;82;21039;-66
2021/12/10 11:08:44;;;;;;;15.80;8.77;;;;;;;4.15;87.54;94497.66;1740175;81;21545;-66
2021/12/10 11:11:25;;;;;;;16.63;10.33;;;;;;;4.21;87.16;94491.48;1739968;82;21031;-67
2021/12/10 11:14:03;;;;;;;13.83;9.80;;;;;;;4.29;86.86;94485.31;1739967;82;21080;-66
2021/12/10 11:16:33;;;;;;;15.70;9.20;;;;;;;4.40;87.10;94488.23;1740817;82;21019;-66
2021/12/10 11:19:14;;;;;;;21.87;13.60;;;;;;;4.56;87.44;94481.91;1742298;81;21071;-67
2021/12/10 11:21:52;;;;;;;16.90;9.63;;;;;;;4.70;87.45;94484.34;1742626;82;21011;-66
2021/12/10 11:24:24;;;;;;;13.50;8.13;;;;;;;4.71;85.50;94480.42;1742034;82;21024;-66
2021/12/10 11:26:59;;;;;;;15.40;9.43;;;;;;;4.81;85.67;94471.12;1742510;82;20983;-66
2021/12/10 11:29:50;;;;;;;19.13;8.40;;;;;;;4.86;85.93;94478.00;1742378;82;20991;-66
2021/12/10 11:32:31;;;;;;;14.50;8.67;;;;;;;4.92;85.56;94475.77;1742245;81;21000;-66
2021/12/10 11:35:30;;;;;;;76.03;40.97;;;;;;;4.97;85.91;94483.95;1731073;82;21080;-66
2021/12/10 11:38:13;;;;;;;18.67;10.60;;;;;;;5.02;85.29;94485.20;1742308;82;21054;-66
2021/12/10 11:40:52;;;;;;;17.25;9.03;;;;;;;4.94;84.44;94475.30;1742186;82;21015;-66
2021/12/10 11:49:01;;;;;;;16.93;10.37;;;;;;;5.08;83.57;94458.09;1742153;82;20995;-66
2021/12/10 11:51:39;;;;;;;12.33;8.77;;;;;;;5.12;84.21;94454.09;1742074;82;21011;-66
2021/12/10 11:54:19;;;;;;;12.97;8.97;;;;;;;5.11;83.45;94456.27;1742361;82;21055;-67
2021/12/10 11:56:57;;;;;;;17.30;9.97;;;;;;;5.10;83.10;94459.79;1742305;82;21058;-67